Time;durP1;ratioP1;P1;durP2;ratioP2;P2;SDS_P1;SDS_P2;PMS_P1;PMS_P2;Temp;Humidity;BMP_temperature;BMP_pressure;BME280_temperature;BME280_humidity;BME280_pressure;Samples;Min_cycle;Max_cycle;Signal;HPM_P1;HPM_P2
2022/07/31 00:00:10;;;;;;;19.35;12.75;;;;;;;18.37;100.00;94813.53;5043736;28;20033;-70
2022/07/31 00:02:39;;;;;;;20.63;11.45;;;;;;;18.33;100.00;94812.53;5047467;28;20048;-70
2022/07/31 00:05:06;;;;;;;15.48;10.90;;;;;;;18.17;100.00;94784.72;5046817;28;20025;-70
2022/07/31 00:07:33;;;;;;;10.85;9.20;;;;;;;18.23;100.00;94796.81;5048650;28;20045;-70
2022/07/31 00:10:00;;;;;;;17.52;9.32;;;;;;;18.23;100.00;94802.06;5033808;28;20047;-70
2022/07/31 00:12:27;;;;;;;11.23;8.85;;;;;;;18.24;100.00;94793.09;5041499;28;20040;-70
2022/07/31 00:14:54;;;;;;;13.73;9.25;;;;;;;18.20;100.00;94792.09;5049284;28;20044;-70
2022/07/31 00:17:21;;;;;;;10.23;8.02;;;;;;;18.15;100.00;94806.91;5035840;28;20037;-70
2022/07/31 00:19:48;;;;;;;11.88;8.40;;;;;;;18.00;100.00;94804.41;5040505;28;20033;-70
2022/07/31 00:22:15;;;;;;;15.30;8.50;;;;;;;18.06;100.00;94818.31;5043430;28;20044;-70
2022/07/31 00:24:42;;;;;;;11.63;8.30;;;;;;;18.02;100.00;94817.28;5044219;28;20450;-70
2022/07/31 00:27:09;;;;;;;14.63;8.73;;;;;;;18.03;100.00;94819.66;5040428;28;20087;-70
2022/07/31 00:29:37;;;;;;;14.15;9.23;;;;;;;17.99;100.00;94809.94;5035843;28;20486;-70
2022/07/31 00:32:06;;;;;;;12.55;10.05;;;;;;;18.02;100.00;94825.97;5032458;28;20045;-70
2022/07/31 00:34:33;;;;;;;15.15;9.43;;;;;;;18.00;100.00;94836.00;5025274;28;20046;-70
2022/07/31 00:37:01;;;;;;;12.00;9.95;;;;;;;17.91;100.00;94821.88;5023876;28;20088;-70
2022/07/31 00:39:29;;;;;;;12.65;10.70;;;;;;;17.77;100.00;94811.97;5040938;28;20120;-70
2022/07/31 00:41:56;;;;;;;17.13;10.98;;;;;;;17.77;100.00;94830.41;5022962;28;20041;-70
2022/07/31 00:44:24;;;;;;;18.80;11.52;;;;;;;17.74;100.00;94828.31;5035156;28;20509;-70
2022/07/31 00:46:52;;;;;;;15.02;11.00;;;;;;;17.69;100.00;94832.81;5031547;28;20048;-70
2022/07/31 00:49:19;;;;;;;20.27;11.95;;;;;;;17.67;100.00;94838.38;5045691;28;20044;-70
2022/07/31 00:51:46;;;;;;;15.23;11.02;;;;;;;17.60;100.00;94832.63;5031415;28;20064;-70
2022/07/31 00:54:14;;;;;;;19.52;10.43;;;;;;;17.56;100.00;94842.16;5031767;28;20144;-70
2022/07/31 00:56:48;;;;;;;15.98;11.07;;;;;;;17.62;100.00;94846.31;5049074;28;20052;-70
2022/07/31 00:59:15;;;;;;;16.20;11.50;;;;;;;17.66;100.00;94836.00;5045472;28;20055;-70
2022/07/31 01:01:50;;;;;;;19.27;10.38;;;;;;;17.62;100.00;94835.00;5040464;28;20354;-70
2022/07/31 01:04:18;;;;;;;17.75;11.73;;;;;;;17.44;100.00;94828.53;5037213;28;20045;-70
2022/07/31 01:06:46;;;;;;;17.67;10.35;;;;;;;17.51;100.00;94855.34;5038065;28;20390;-70
2022/07/31 01:09:14;;;;;;;16.35;10.20;;;;;;;17.48;100.00;94850.59;5044371;28;20090;-70
2022/07/31 01:11:59;;;;;;;16.35;10.50;;;;;;;17.45;100.00;94851.97;5042550;28;20090;-70
2022/07/31 01:14:32;;;;;;;18.45;11.15;;;;;;;17.39;100.00;94847.75;5030584;28;20038;-70
2022/07/31 01:17:01;;;;;;;14.23;10.82;;;;;;;17.32;100.00;94857.81;5040787;28;20454;-70
2022/07/31 01:19:44;;;;;;;15.05;10.55;;;;;;;17.24;100.00;94856.53;5018093;28;20098;-70
2022/07/31 01:23:03;;;;;;;12.82;10.10;;;;;;;17.21;100.00;94857.09;5031558;28;20052;-70
2022/07/31 01:25:56;;;;;;;13.65;9.32;;;;;;;17.15;100.00;94852.91;5030526;28;20041;-70
2022/07/31 01:29:12;;;;;;;11.43;8.73;;;;;;;17.12;100.00;94853.44;5031620;28;20051;-70
2022/07/31 01:31:48;;;;;;;12.77;9.63;;;;;;;17.05;100.00;94848.50;5025121;28;20053;-69
2022/07/31 01:34:23;;;;;;;14.80;9.50;;;;;;;16.98;100.00;94830.38;5031783;28;20044;-70
2022/07/31 01:36:58;;;;;;;13.25;9.50;;;;;;;17.03;100.00;94834.03;5034580;28;20603;-70
2022/07/31 01:39:25;;;;;;;13.43;9.25;;;;;;;17.02;100.00;94835.88;5032632;28;20041;-70
2022/07/31 01:42:03;;;;;;;13.40;8.50;;;;;;;16.98;100.00;94833.00;5042887;28;20053;-70
2022/07/31 01:44:37;;;;;;;12.10;9.35;;;;;;;16.92;100.00;94839.34;5035804;28;20040;-69
2022/07/31 01:47:05;;;;;;;18.70;9.30;;;;;;;16.90;100.00;94841.44;5032076;28;20044;-70
2022/07/31 01:49:34;;;;;;;13.35;8.15;;;;;;;16.88;100.00;94848.81;5029580;28;20439;-70
2022/07/31 01:52:03;;;;;;;20.65;8.43;;;;;;;16.90;100.00;94849.34;5019887;28;20045;-70
2022/07/31 01:54:34;;;;;;;11.38;8.20;;;;;;;16.85;100.00;94843.31;5034061;28;20556;-70
2022/07/31 01:57:04;;;;;;;13.35;7.93;;;;;;;16.79;100.00;94835.41;5025299;28;20087;-69
2022/07/31 01:59:38;;;;;;;10.43;6.97;;;;;;;16.74;100.00;94837.28;5033750;28;20040;-70
2022/07/31 02:02:17;;;;;;;15.60;8.18;;;;;;;16.70;100.00;94838.88;5013127;28;20049;-70
2022/07/31 02:04:46;;;;;;;18.88;7.80;;;;;;;16.68;100.00;94838.38;5022206;28;20429;-68
2022/07/31 02:07:15;;;;;;;17.30;7.22;;;;;;;16.66;100.00;94832.59;5037837;28;20045;-69
2022/07/31 02:09:44;;;;;;;9.10;6.50;;;;;;;16.63;100.00;94820.75;5019310;28;20501;-70
2022/07/31 02:12:30;;;;;;;9.43;7.22;;;;;;;16.57;100.00;94822.63;5021579;28;20048;-69
2022/07/31 02:15:05;;;;;;;10.27;7.25;;;;;;;16.58;100.00;94813.69;5049826;28;20040;-70
2022/07/31 02:17:35;;;;;;;12.13;6.82;;;;;;;16.49;100.00;94809.25;5031924;28;20461;-70
2022/07/31 02:20:22;;;;;;;14.73;7.60;;;;;;;16.57;100.00;94838.41;5037662;28;20179;-70
2022/07/31 02:22:53;;;;;;;11.85;7.53;;;;;;;16.58;100.00;94834.72;5049610;28;20082;-70
2022/07/31 02:25:20;;;;;;;10.57;6.80;;;;;;;16.58;100.00;94834.72;5029780;28;20049;-69
2022/07/31 02:27:49;;;;;;;10.52;6.80;;;;;;;16.53;100.00;94821.59;5036013;28;20127;-69
2022/07/31 02:30:31;;;;;;;11.55;6.97;;;;;;;16.68;100.00;94838.38;5017710;28;20033;-70
2022/07/31 02:33:13;;;;;;;12.43;7.65;;;;;;;16.76;100.00;94837.78;5035815;28;20041;-69
2022/07/31 02:35:44;;;;;;;15.95;7.22;;;;;;;16.79;100.00;94834.63;5032633;28;20044;-68
2022/07/31 02:38:17;;;;;;;11.40;7.30;;;;;;;16.81;100.00;94843.03;5040621;28;20049;-69
2022/07/31 02:40:56;;;;;;;13.20;7.47;;;;;;;16.77;100.00;94836.75;5046966;28;20095;-70
2022/07/31 02:43:29;;;;;;;12.18;8.25;;;;;;;16.75;100.00;94838.88;5040756;28;20037;-69
2022/07/31 02:45:59;;;;;;;11.65;7.18;;;;;;;16.72;100.00;94839.41;5032444;28;20419;-70
2022/07/31 02:48:28;;;;;;;10.32;6.82;;;;;;;16.66;100.00;94835.22;5032520;28;20052;-70
2022/07/31 02:51:00;;;;;;;10.82;7.15;;;;;;;16.68;100.00;94844.41;5051554;28;20044;-70
2022/07/31 02:53:28;;;;;;;12.73;7.15;;;;;;;16.73;100.00;94840.97;5039711;28;20045;-69
2022/07/31 02:56:03;;;;;;;13.40;7.30;;;;;;;16.75;100.00;94844.91;5042674;28;20131;-69
2022/07/31 02:58:32;;;;;;;23.10;8.30;;;;;;;16.64;100.00;94817.09;5027590;28;21082;-70
2022/07/31 03:01:02;;;;;;;10.88;7.80;;;;;;;16.82;100.00;94839.38;5023589;28;20462;-70
2022/07/31 03:03:31;;;;;;;16.02;7.88;;;;;;;16.86;100.00;94840.44;5024292;28;20041;-69
2022/07/31 03:05:58;;;;;;;17.38;8.55;;;;;;;16.91;100.00;94843.03;5039482;28;20078;-69
2022/07/31 03:08:26;;;;;;;12.70;8.43;;;;;;;16.97;100.00;94841.16;5030729;28;20048;-69
2022/07/31 03:10:57;;;;;;;12.68;8.75;;;;;;;16.98;100.00;94833.00;5008296;28;20045;-67
2022/07/31 03:13:27;;;;;;;12.38;8.60;;;;;;;17.02;100.00;94822.72;5033497;28;20525;-68
2022/07/31 03:15:54;;;;;;;13.73;9.35;;;;;;;17.18;100.00;94836.59;5038971;28;20297;-69
2022/07/31 03:18:23;;;;;;;16.88;9.32;;;;;;;17.17;100.00;94835.00;5025323;28;20582;-69
2022/07/31 03:20:51;;;;;;;14.38;10.02;;;;;;;17.17;100.00;94832.38;5027940;28;20507;-69
2022/07/31 03:23:20;;;;;;;18.50;9.23;;;;;;;17.27;100.00;94842.84;5029472;28;20037;-69
2022/07/31 03:25:53;;;;;;;14.00;10.07;;;;;;;17.29;100.00;94838.09;5029991;28;20484;-68
2022/07/31 03:28:21;;;;;;;16.58;10.25;;;;;;;17.34;100.00;94843.34;5035548;28;20140;-69
2022/07/31 03:30:52;;;;;;;14.88;9.65;;;;;;;17.37;100.00;94845.41;5013267;28;20143;-69
2022/07/31 03:33:24;;;;;;;15.85;9.60;;;;;;;17.41;100.00;94855.41;5018076;28;20045;-68
2022/07/31 03:35:52;;;;;;;13.73;10.15;;;;;;;17.39;100.00;94848.56;5028709;28;20124;-68
2022/07/31 03:38:19;;;;;;;11.20;8.85;;;;;;;17.44;100.00;94860.13;5022191;28;20072;-69
2022/07/31 03:41:07;;;;;;;12.80;8.68;;;;;;;17.44;100.00;94857.50;5013096;28;20045;-69
2022/07/31 03:43:34;;;;;;;12.45;8.57;;;;;;;17.33;100.00;94849.66;5034011;28;20037;-69
2022/07/31 03:46:19;;;;;;;12.63;9.93;;;;;;;17.38;100.00;94857.53;5003374;28;21133;-68
2022/07/31 03:48:46;;;;;;;12.57;10.25;;;;;;;17.35;100.00;94858.06;5026130;28;20040;-69
2022/07/31 03:51:14;;;;;;;15.90;10.48;;;;;;;17.42;100.00;94878.03;5019861;28;20054;-69
2022/07/31 03:53:43;;;;;;;14.25;9.95;;;;;;;17.45;100.00;94864.31;5029345;28;20049;-69
2022/07/31 03:56:24;;;;;;;14.20;10.25;;;;;;;17.48;100.00;94872.44;5040961;28;20054;-69
2022/07/31 03:58:52;;;;;;;18.00;10.23;;;;;;;17.54;100.00;94867.97;5017127;28;20053;-69
2022/07/31 04:01:20;;;;;;;12.95;10.02;;;;;;;17.56;100.00;94868.47;5017550;28;20037;-69
2022/07/31 04:04:00;;;;;;;17.85;10.63;;;;;;;17.66;100.00;94867.59;5017700;28;20041;-70
2022/07/31 04:06:33;;;;;;;13.27;8.77;;;;;;;17.66;100.00;94872.88;5046294;28;20072;-69
2022/07/31 04:09:00;;;;;;;14.32;10.07;;;;;;;17.54;100.00;94860.06;5024155;28;20083;-69
2022/07/31 04:11:45;;;;;;;15.80;10.10;;;;;;;17.56;100.00;94868.47;5014550;28;20049;-69
2022/07/31 04:14:14;;;;;;;15.20;11.48;;;;;;;17.38;100.00;94857.53;5023058;28;20048;-69
2022/07/31 04:16:41;;;;;;;18.95;11.77;;;;;;;17.45;100.00;94872.22;5029963;28;20051;-69
2022/07/31 04:19:07;;;;;;;27.05;13.10;;;;;;;17.39;100.00;94869.63;5025992;28;20449;-69
2022/07/31 04:21:35;;;;;;;17.77;12.73;;;;;;;17.16;100.00;94854.47;5042550;28;20044;-70
2022/07/31 04:24:03;;;;;;;27.63;15.80;;;;;;;17.25;100.00;94873.94;5028797;28;20041;-70
2022/07/31 04:26:49;;;;;;;24.15;17.00;;;;;;;17.21;100.00;94862.34;5028616;28;20589;-69
2022/07/31 04:29:17;;;;;;;29.73;16.95;;;;;;;17.08;100.00;94836.63;5023514;28;20495;-69
2022/07/31 04:31:44;;;;;;;36.75;18.77;;;;;;;17.20;100.00;94874.72;5009819;28;20040;-69
2022/07/31 04:34:22;;;;;;;28.23;18.52;;;;;;;17.07;100.00;94877.97;5028641;28;20056;-69
2022/07/31 04:36:49;;;;;;;31.17;19.52;;;;;;;17.05;100.00;94876.63;5026252;28;20267;-69
2022/07/31 04:39:16;;;;;;;35.47;20.83;;;;;;;16.92;100.00;94860.38;5045325;28;20051;-69
2022/07/31 04:41:43;;;;;;;39.03;19.45;;;;;;;16.97;100.00;94868.25;5047941;28;20045;-69
2022/07/31 04:44:10;;;;;;;38.78;19.25;;;;;;;16.96;100.00;94871.16;5018702;28;20049;-69
2022/07/31 04:46:50;;;;;;;33.85;20.75;;;;;;;16.97;100.00;94878.78;5025481;28;20056;-70
2022/07/31 04:49:17;;;;;;;34.92;21.63;;;;;;;16.95;100.00;94861.69;5027347;28;20048;-70
2022/07/31 04:51:45;;;;;;;32.33;20.42;;;;;;;17.03;100.00;94873.50;5023830;28;20506;-72
2022/07/31 04:54:13;;;;;;;32.88;21.17;;;;;;;17.04;100.00;94872.44;5046354;28;20041;-70
2022/07/31 04:56:43;;;;;;;36.10;22.00;;;;;;;17.25;100.00;94878.38;5029192;28;20041;-70
2022/07/31 04:59:12;;;;;;;39.10;22.52;;;;;;;17.27;100.00;94887.59;5025826;28;20068;-73
2022/07/31 05:01:44;;;;;;;38.27;21.40;;;;;;;17.37;100.00;94873.59;5050401;28;20044;-73
2022/07/31 05:04:14;;;;;;;34.72;20.45;;;;;;;17.40;100.00;94875.69;5003634;28;20524;-73
2022/07/31 05:06:46;;;;;;;31.58;20.20;;;;;;;17.49;100.00;94878.53;5030126;28;20045;-73
2022/07/31 05:09:16;;;;;;;30.35;18.70;;;;;;;17.63;100.00;94887.38;5029871;28;20055;-73
2022/07/31 05:11:47;;;;;;;28.73;18.80;;;;;;;17.66;100.00;94884.19;5029206;28;20941;-73
2022/07/31 05:14:16;;;;;;;28.38;17.80;;;;;;;17.63;100.00;94884.75;5023546;28;20045;-73
2022/07/31 05:16:44;;;;;;;29.65;19.27;;;;;;;17.57;100.00;94885.84;5022063;28;20096;-73
2022/07/31 05:19:11;;;;;;;32.17;17.50;;;;;;;17.52;100.00;94877.97;5016470;28;20037;-73
2022/07/31 05:21:56;;;;;;;;;;;;;;;17.58;100.00;94882.16;5044155;28;20045;-73
2022/07/31 05:24:31;;;;;;;27.08;17.42;;;;;;;17.57;100.00;94885.84;5028904;28;19920;-73
2022/07/31 05:27:09;;;;;;;24.38;17.13;;;;;;;17.56;100.00;94879.00;5025357;28;20087;-73
2022/07/31 05:29:38;;;;;;;23.88;16.50;;;;;;;17.58;100.00;94888.19;5036929;28;20147;-73
2022/07/31 05:32:05;;;;;;;24.85;16.65;;;;;;;17.64;100.00;94883.69;5027585;28;20099;-73
2022/07/31 05:34:33;;;;;;;23.77;15.68;;;;;;;17.69;100.00;94888.91;5027093;28;20145;-73
2022/07/31 05:37:01;;;;;;;22.50;16.17;;;;;;;17.76;100.00;94894.66;5031059;28;20045;-73
2022/07/31 05:39:30;;;;;;;28.20;17.27;;;;;;;17.84;100.00;94900.41;5027481;28;20048;-73
2022/07/31 05:42:16;;;;;;;24.63;17.25;;;;;;;17.87;100.00;94894.63;5039224;28;20543;-73
2022/07/31 05:45:01;;;;;;;23.45;16.85;;;;;;;17.99;100.00;94902.97;5023581;28;20060;-74
2022/07/31 06:12:02;;;;;;;20.15;14.75;;;;;;;19.25;100.00;94880.06;5047082;28;20064;-73
2022/07/31 06:14:51;;;;;;;21.83;14.60;;;;;;;19.48;100.00;94888.19;5037647;28;20049;-73
2022/07/31 06:22:52;;;;;;;23.67;17.05;;;;;;;19.74;100.00;94890.53;5045032;28;20091;-73
2022/07/31 06:25:20;;;;;;;22.58;14.98;;;;;;;19.77;100.00;94892.56;4992428;28;20442;-73
2022/07/31 06:27:48;;;;;;;23.88;16.00;;;;;;;19.77;100.00;94887.28;5023317;28;20085;-73
2022/07/31 06:30:25;;;;;;;20.48;15.43;;;;;;;19.89;100.00;94900.06;5016585;28;20037;-73
2022/07/31 06:32:52;;;;;;;20.10;15.93;;;;;;;19.93;100.00;94898.41;5007400;28;20049;-73
2022/07/31 06:35:19;;;;;;;18.77;14.93;;;;;;;19.92;100.00;94887.06;5023116;28;20041;-73
2022/07/31 06:48:18;;;;;;;19.35;13.85;;;;;;;20.15;100.00;94884.59;5009264;28;20060;-73
2022/07/31 06:56:11;;;;;;;16.52;13.32;;;;;;;20.54;100.00;94896.63;5020683;28;20048;-73
2022/07/31 06:58:38;;;;;;;20.05;14.00;;;;;;;20.88;100.00;94884.91;5005706;28;20073;-73
2022/07/31 07:01:05;;;;;;;16.13;13.13;;;;;;;20.95;100.00;94858.84;5004195;28;20046;-73
2022/07/31 07:03:32;;;;;;;18.95;12.85;;;;;;;21.14;100.00;94888.63;5007045;28;20033;-73
2022/07/31 07:05:59;;;;;;;15.18;11.88;;;;;;;20.98;100.00;94871.50;5025542;28;20045;-73
2022/07/31 07:08:26;;;;;;;15.27;10.98;;;;;;;21.04;100.00;94888.84;5025134;28;20045;-73
2022/07/31 07:10:53;;;;;;;17.70;12.77;;;;;;;21.14;100.00;94872.75;5021350;28;20148;-73
2022/07/31 07:15:52;;;;;;;13.52;10.77;;;;;;;21.25;100.00;94899.00;5096703;27;20141;-74
2022/07/31 07:18:23;;;;;;;13.60;11.38;;;;;;;21.20;100.00;94903.31;5085456;28;20127;-72
2022/07/31 07:20:52;;;;;;;14.35;11.88;;;;;;;21.26;100.00;94887.34;5116231;27;20138;-71
2022/07/31 07:23:20;;;;;;;15.55;11.98;;;;;;;21.26;100.00;94897.94;5086649;28;20071;-70
2022/07/31 07:26:08;;;;;;;12.48;10.18;;;;;;;21.17;100.00;94898.63;5096079;28;20055;-68
2022/07/31 07:28:35;;;;;;;15.27;10.80;;;;;;;21.02;100.00;94883.03;5078786;28;20043;-68
2022/07/31 07:31:05;;;;;;;14.35;11.85;;;;;;;21.14;100.00;94896.56;5081958;28;20040;-71
2022/07/31 07:33:32;;;;;;;17.73;12.50;;;;;;;21.47;100.00;94907.03;5084426;28;20056;-70
2022/07/31 07:36:09;;;;;;;12.40;11.07;;;;;;;21.51;100.00;94900.06;5088192;28;20089;-68
2022/07/31 07:38:53;;;;;;;14.23;10.85;;;;;;;21.49;100.00;94894.28;5082783;28;20507;-68
2022/07/31 07:41:25;;;;;;;14.10;11.10;;;;;;;21.51;100.00;94900.06;5110097;27;20093;-68
2022/07/31 07:43:53;;;;;;;13.50;11.50;;;;;;;21.60;100.00;94894.84;5076076;28;20196;-68
2022/07/31 07:46:23;;;;;;;19.05;12.25;;;;;;;21.98;100.00;94899.03;5085743;28;20043;-68
2022/07/31 07:48:54;;;;;;;14.30;10.63;;;;;;;22.21;100.00;94897.94;5077060;28;20043;-68
2022/07/31 07:51:48;;;;;;;15.57;10.93;;;;;;;22.33;100.00;94906.16;5080313;28;20130;-68
2022/07/31 07:54:35;;;;;;;15.48;11.55;;;;;;;22.01;100.00;94898.44;5075297;27;20060;-70
2022/07/31 07:57:20;;;;;;;13.65;10.88;;;;;;;22.26;100.00;94905.00;5109474;28;20040;-74
2022/07/31 08:00:09;;;;;;;11.88;9.68;;;;;;;22.14;100.00;94908.97;5099924;28;20078;-73
2022/07/31 08:02:43;;;;;;;14.45;10.70;;;;;;;21.90;100.00;94884.63;5108182;28;20048;-72
2022/07/31 08:05:30;;;;;;;12.18;10.75;;;;;;;22.37;100.00;94900.25;5082834;28;20041;-72
2022/07/31 08:07:58;;;;;;;13.23;10.10;;;;;;;22.56;100.00;94900.81;5107063;28;20035;-73
2022/07/31 08:10:48;;;;;;;13.05;9.77;;;;;;;22.43;100.00;94891.06;5074591;28;20058;-73
2022/07/31 08:13:23;;;;;;;11.25;8.95;;;;;;;22.36;100.00;94898.69;5078901;28;20044;-73
2022/07/31 08:16:09;;;;;;;11.23;9.60;;;;;;;22.49;100.00;94895.94;5101733;28;20054;-72
2022/07/31 08:18:41;;;;;;;11.52;9.25;;;;;;;22.68;100.00;94906.34;5089037;28;20047;-73
2022/07/31 08:21:08;;;;;;;11.82;10.40;;;;;;;22.73;100.00;94905.44;5091245;28;20729;-73
2022/07/31 08:23:35;;;;;;;11.98;9.88;;;;;;;22.89;100.00;94889.88;5092544;28;20043;-73
2022/07/31 08:26:04;;;;;;;12.25;8.73;;;;;;;23.35;99.74;94907.19;5063418;28;20317;-72
2022/07/31 08:28:33;;;;;;;18.10;10.35;;;;;;;23.60;100.00;94902.22;5076727;28;20097;-73
2022/07/31 08:31:01;;;;;;;11.73;9.32;;;;;;;23.73;99.32;94903.94;5072319;28;20051;-73
2022/07/31 08:33:31;;;;;;;11.95;10.20;;;;;;;23.78;97.13;94903.81;5070745;28;20577;-73
2022/07/31 08:35:59;;;;;;;11.07;8.45;;;;;;;23.53;97.58;94897.38;5078011;28;20119;-72
2022/07/31 08:38:27;;;;;;;14.18;9.77;;;;;;;23.86;99.79;94889.00;5091314;28;20121;-73
2022/07/31 08:41:23;;;;;;;11.55;9.73;;;;;;;24.38;95.79;94898.75;5069144;28;20101;-73
2022/07/31 08:43:50;;;;;;;11.40;8.68;;;;;;;;;;5069037;28;20085;-69
2022/07/31 08:46:37;;;;;;;10.80;8.43;;;;;;;24.71;91.81;94891.03;5075244;28;20043;-70
2022/07/31 08:49:08;;;;;;;11.35;9.30;;;;;;;24.82;90.82;94907.44;5068000;28;20050;-69
2022/07/31 08:51:40;;;;;;;14.30;9.65;;;;;;;24.71;91.07;94890.25;5072617;28;20047;-70
2022/07/31 08:54:42;;;;;;;19.80;11.85;;;;;;;24.11;97.37;94884.75;5092440;28;20109;-70
2022/07/31 08:57:10;;;;;;;16.40;12.18;;;;;;;24.10;97.07;94888.47;5070184;28;20036;-73
2022/07/31 08:59:42;;;;;;;16.08;11.40;;;;;;;23.74;97.86;94886.91;5068872;28;20055;-74
2022/07/31 09:02:10;;;;;;;16.10;11.40;;;;;;;23.62;99.78;94897.38;5072921;28;20036;-73
2022/07/31 09:04:50;;;;;;;13.85;10.98;;;;;;;23.61;99.51;94893.19;5070553;28;20126;-74
2022/07/31 09:07:19;;;;;;;13.93;10.88;;;;;;;23.70;97.78;94888.63;5088523;28;20167;-74
2022/07/31 09:09:46;;;;;;;13.50;10.68;;;;;;;23.68;96.12;94885.50;5070485;28;20127;-74
2022/07/31 09:12:30;;;;;;;12.75;10.05;;;;;;;23.83;95.40;94892.25;5075880;28;20050;-73
2022/07/31 09:15:04;;;;;;;10.98;8.85;;;;;;;23.85;97.00;94888.19;5088522;28;20043;-74
2022/07/31 09:17:34;;;;;;;10.65;8.70;;;;;;;23.84;96.22;94886.63;5068370;28;20638;-77
2022/07/31 09:20:04;;;;;;;11.05;8.05;;;;;;;24.22;92.64;94890.50;5067782;28;20048;-68
2022/07/31 09:22:33;;;;;;;11.90;9.77;;;;;;;24.46;91.39;94894.53;5086393;28;20452;-69
2022/07/31 09:25:10;;;;;;;12.05;8.57;;;;;;;24.50;91.45;94885.56;5081854;28;20866;-69
2022/07/31 09:27:38;;;;;;;12.98;8.18;;;;;;;24.47;93.27;94880.91;5069180;28;20046;-68
2022/07/31 09:30:07;;;;;;;10.20;7.78;;;;;;;24.73;90.91;94893.38;5062205;28;20139;-68
2022/07/31 09:32:56;;;;;;;10.30;8.35;;;;;;;24.93;90.19;94889.97;5072098;28;20051;-70
2022/07/31 09:35:49;;;;;;;10.55;8.63;;;;;;;25.10;89.48;94875.00;5070656;28;20098;-76
2022/07/31 09:38:18;;;;;;;9.15;7.50;;;;;;;25.25;83.06;94871.81;5093049;28;20047;-74
2022/07/31 09:41:17;;;;;;;8.30;6.85;;;;;;;25.23;78.46;94863.34;5066194;28;20063;-75
2022/07/31 09:44:10;;;;;;;7.85;6.18;;;;;;;25.45;79.78;94869.50;5052072;28;20036;-74
2022/07/31 09:46:44;;;;;;;10.07;7.53;;;;;;;25.86;78.75;94867.94;5072739;28;20046;-74
2022/07/31 09:49:11;;;;;;;8.25;5.78;;;;;;;25.89;79.78;94875.25;5073207;28;20121;-74
2022/07/31 09:51:41;;;;;;;10.82;7.05;;;;;;;25.64;81.09;94872.50;5067178;27;20048;-72
2022/07/31 09:54:23;;;;;;;14.57;7.75;;;;;;;25.35;81.85;94860.00;5069371;28;20584;-72
2022/07/31 09:57:11;;;;;;;11.57;7.65;;;;;;;25.35;80.92;94875.97;5071993;28;20044;-71
2022/07/31 09:59:50;;;;;;;12.02;9.07;;;;;;;25.34;81.26;94864.56;5068490;28;20130;-71
2022/07/31 10:02:18;;;;;;;12.00;8.48;;;;;;;25.13;81.00;94890.38;5088877;27;20532;-68
2022/07/31 10:04:49;;;;;;;12.55;7.53;;;;;;;25.27;82.35;94879.50;5075379;28;20044;-72
2022/07/31 10:07:17;;;;;;;12.50;9.20;;;;;;;25.42;80.74;94846.94;5063949;28;20047;-73
2022/07/31 10:10:12;;;;;;;12.70;9.70;;;;;;;25.45;79.61;94864.19;5072376;28;20043;-71
2022/07/31 10:12:54;;;;;;;11.65;8.90;;;;;;;25.23;78.52;94857.22;5063907;28;20048;-72
2022/07/31 10:15:23;;;;;;;12.68;9.63;;;;;;;25.38;79.01;94860.13;5067079;28;20050;-72
2022/07/31 10:18:10;;;;;;;13.30;9.75;;;;;;;24.99;81.01;94859.41;5063813;28;20048;-77
2022/07/31 10:20:58;;;;;;;12.65;9.75;;;;;;;24.96;80.47;94875.25;5053570;28;20047;-77
2022/07/31 10:23:51;;;;;;;13.13;10.68;;;;;;;25.20;82.20;94858.66;5063676;28;20101;-77
2022/07/31 10:26:19;;;;;;;16.38;11.65;;;;;;;25.50;79.65;94856.75;5068089;28;20520;-77
2022/07/31 10:28:47;;;;;;;14.48;10.95;;;;;;;25.14;78.53;94849.31;5073085;27;20133;-77
2022/07/31 10:31:15;;;;;;;14.27;9.77;;;;;;;25.35;77.39;94855.47;5068271;28;20062;-77
2022/07/31 10:33:44;;;;;;;16.33;11.68;;;;;;;25.44;76.72;94843.94;5099137;27;20629;-76
2022/07/31 10:36:57;;;;;;;14.52;10.60;;;;;;;25.65;74.44;94847.38;5018965;28;20566;-77
2022/07/31 10:39:57;;;;;;;13.63;10.05;;;;;;;25.56;75.47;94854.69;5014113;28;20041;-77
2022/07/31 10:42:48;;;;;;;13.55;9.18;;;;;;;25.52;75.54;94837.78;5057510;28;20063;-73
2022/07/31 10:45:16;;;;;;;13.43;10.55;;;;;;;25.53;73.26;94855.31;5064607;28;20040;-69
2022/07/31 10:48:10;;;;;;;13.43;11.13;;;;;;;25.39;71.33;94860.94;5068503;28;20124;-70
2022/07/31 10:51:10;;;;;;;13.85;10.45;;;;;;;25.60;68.25;94858.25;5070857;28;20131;-70
2022/07/31 10:54:04;;;;;;;11.30;8.68;;;;;;;25.68;66.96;94854.75;5089129;28;20769;-69
2022/07/31 10:56:57;;;;;;;13.02;10.13;;;;;;;25.54;67.74;94838.22;5071278;28;20062;-70
2022/07/31 10:59:38;;;;;;;12.25;9.43;;;;;;;25.85;67.10;94845.03;5100819;27;20048;-71
2022/07/31 11:02:13;;;;;;;12.23;9.10;;;;;;;25.94;69.31;94853.75;5082895;28;20083;-70
2022/07/31 11:05:07;;;;;;;14.07;10.90;;;;;;;25.86;69.31;94841.25;5085940;28;20078;-76
2022/07/31 11:08:06;;;;;;;11.88;9.60;;;;;;;25.56;69.76;94828.78;5070248;28;20040;-76
2022/07/31 11:10:53;;;;;;;11.55;8.57;;;;;;;25.83;70.44;94832.00;5064486;28;20063;-77
2022/07/31 11:13:48;;;;;;;11.93;9.07;;;;;;;26.18;67.49;94842.41;5090194;28;20055;-77
2022/07/31 11:16:52;;;;;;;12.50;9.40;;;;;;;26.29;67.68;94848.09;5058486;28;20052;-77
2022/07/31 11:19:42;;;;;;;11.25;9.15;;;;;;;26.26;65.96;94840.72;5089214;28;20062;-76
2022/07/31 11:22:14;;;;;;;11.60;8.77;;;;;;;26.23;67.32;94833.38;5102370;28;20036;-72
2022/07/31 11:24:59;;;;;;;13.00;9.35;;;;;;;26.43;66.59;94832.50;5086373;28;20036;-72
2022/07/31 11:27:33;;;;;;;9.48;8.05;;;;;;;26.91;64.77;94840.16;5091657;28;20112;-72
2022/07/31 11:30:05;;;;;;;9.95;8.35;;;;;;;27.01;63.62;94829.78;5097098;28;20044;-73
2022/07/31 11:32:49;;;;;;;9.57;7.53;;;;;;;26.98;60.41;94824.34;5075075;28;20160;-66
2022/07/31 11:35:30;;;;;;;11.68;7.25;;;;;;;27.09;58.29;94814.75;5097729;28;20152;-68
2022/07/31 11:37:57;;;;;;;7.68;6.43;;;;;;;26.85;58.64;94815.56;5093150;28;20036;-68
2022/07/31 11:40:25;;;;;;;7.35;5.93;;;;;;;26.93;57.83;94817.31;5085143;28;20044;-68
2022/07/31 11:42:54;;;;;;;9.68;7.50;;;;;;;27.07;59.05;94806.28;5084344;28;20076;-68
2022/07/31 11:45:45;;;;;;;8.05;6.78;;;;;;;27.59;58.08;94805.50;5087701;28;20035;-70
2022/07/31 11:48:15;;;;;;;5.13;4.40;;;;;;;27.71;56.65;94814.59;5090111;28;20048;-71
2022/07/31 11:50:46;;;;;;;9.93;6.63;;;;;;;27.90;55.33;94809.41;5089274;28;20051;-69
2022/07/31 11:53:13;;;;;;;8.13;6.70;;;;;;;27.54;56.89;94813.00;5089881;28;20048;-69
2022/07/31 11:55:59;;;;;;;9.60;7.63;;;;;;;27.06;57.83;94807.38;5087371;28;20040;-69
2022/07/31 11:58:28;;;;;;;11.18;6.65;;;;;;;26.59;59.72;94797.16;5088593;28;20535;-70
2022/07/31 12:01:00;;;;;;;8.60;7.10;;;;;;;26.99;58.75;94791.94;5082919;28;20062;-69
2022/07/31 12:03:33;;;;;;;10.55;6.82;;;;;;;27.36;55.73;94793.78;5083023;27;20066;-70
2022/07/31 12:06:06;;;;;;;9.48;7.95;;;;;;;27.36;56.81;94796.47;5082433;28;20055;-76
2022/07/31 12:08:34;;;;;;;12.25;7.93;;;;;;;27.53;55.40;94779.34;5071801;28;20048;-76
2022/07/31 12:11:08;;;;;;;10.35;8.65;;;;;;;27.54;53.83;94819.13;5066700;28;20055;-77
2022/07/31 12:13:36;;;;;;;8.65;7.63;;;;;;;26.92;55.57;94766.88;5085631;28;20358;-77
2022/07/31 12:16:09;;;;;;;9.55;7.85;;;;;;;26.59;55.20;94802.50;5084078;28;20052;-77
2022/07/31 12:18:52;;;;;;;8.07;7.07;;;;;;;26.77;55.11;94771.78;5070063;28;20043;-80
2022/07/31 12:21:28;;;;;;;9.75;8.30;;;;;;;27.31;54.24;94767.28;5082659;28;20680;-79
2022/07/31 12:23:57;;;;;;;10.40;8.00;;;;;;;27.31;51.36;94756.59;5084409;28;20054;-79
2022/07/31 12:26:28;;;;;;;8.77;7.03;;;;;;;27.49;49.42;94770.44;5051443;28;20055;-79
2022/07/31 12:29:16;;;;;;;18.58;8.40;;;;;;;27.67;50.60;94778.97;5049344;28;20048;-78
2022/07/31 12:31:49;;;;;;;8.95;7.55;;;;;;;27.94;49.97;94775.50;5064054;28;20056;-77
2022/07/31 12:34:37;;;;;;;11.75;6.65;;;;;;;27.55;48.02;94767.19;5066121;28;20043;-77
2022/07/31 12:37:07;;;;;;;12.25;7.38;;;;;;;27.98;47.97;94778.25;5085166;28;20058;-77